Time;durP1;ratioP1;P1;durP2;ratioP2;P2;SDS_P1;SDS_P2;PMS_P1;PMS_P2;Temp;Humidity;BMP_temperature;BMP_pressure;BME280_temperature;BME280_humidity;BME280_pressure;Samples;Min_cycle;Max_cycle;Signal;HPM_P1;HPM_P2
2024/01/30 00:01:36;;;;;;;9.90;5.30;;;;;;;3.49;100.00;102508.06;6255045;28;20060;-77
2024/01/30 00:04:37;;;;;;;12.27;5.15;;;;;;;3.48;100.00;102508.06;6254790;28;20049;-78
2024/01/30 00:07:38;;;;;;;14.55;5.75;;;;;;;3.44;100.00;102507.19;6254197;28;20060;-77
2024/01/30 00:10:41;;;;;;;12.07;5.68;;;;;;;3.46;100.00;102491.63;6254858;28;20049;-77
2024/01/30 00:13:43;;;;;;;11.88;6.07;;;;;;;3.42;100.00;102500.25;6254345;28;20076;-78
2024/01/30 00:16:44;;;;;;;9.82;5.65;;;;;;;3.38;100.00;102494.19;6254118;28;20049;-78
2024/01/30 00:19:46;;;;;;;14.25;5.55;;;;;;;3.39;100.00;102495.03;6254287;28;20102;-77
2024/01/30 00:22:47;;;;;;;13.45;6.68;;;;;;;3.39;100.00;102495.91;6253977;28;20342;-77
2024/01/30 00:25:50;;;;;;;11.40;5.38;;;;;;;3.39;100.00;102492.44;6254326;28;20049;-78
2024/01/30 00:28:52;;;;;;;13.27;5.20;;;;;;;3.38;100.00;102493.31;6242088;28;20052;-78
2024/01/30 00:31:53;;;;;;;10.90;5.70;;;;;;;3.45;100.00;102490.75;6234877;28;20058;-78
2024/01/30 00:34:54;;;;;;;11.95;4.93;;;;;;;3.47;100.00;102491.63;6229170;28;20050;-78
2024/01/30 00:37:57;;;;;;;14.13;6.35;;;;;;;3.49;100.00;102499.41;6229092;28;20065;-77
2024/01/30 00:40:59;;;;;;;9.60;5.50;;;;;;;3.48;100.00;102503.75;6229133;28;20449;-78
2024/01/30 00:44:01;;;;;;;14.95;6.28;;;;;;;3.44;100.00;102498.53;6229136;28;20057;-78
2024/01/30 00:47:02;;;;;;;12.57;5.85;;;;;;;3.41;100.00;102499.41;6228570;28;20054;-77
2024/01/30 00:50:04;;;;;;;12.85;6.95;;;;;;;3.40;100.00;102496.78;6229403;28;20060;-77
2024/01/30 00:53:05;;;;;;;14.23;5.30;;;;;;;3.38;100.00;102499.38;6228817;28;20046;-77
2024/01/30 00:56:08;;;;;;;15.57;5.53;;;;;;;3.37;100.00;102501.97;6229049;28;20058;-77
2024/01/30 00:59:09;;;;;;;13.63;5.78;;;;;;;3.40;100.00;102495.03;6228520;28;20091;-78
2024/01/30 01:02:11;;;;;;;13.00;5.90;;;;;;;3.40;100.00;102494.16;6227631;28;20518;-77
2024/01/30 01:05:12;;;;;;;13.40;6.53;;;;;;;3.39;100.00;102497.63;6228511;28;20057;-78
2024/01/30 01:08:14;;;;;;;13.48;6.25;;;;;;;3.39;100.00;102497.63;6227962;28;20049;-78
2024/01/30 01:11:17;;;;;;;12.77;5.90;;;;;;;3.37;100.00;102499.38;6228475;28;20346;-77
2024/01/30 01:14:19;;;;;;;11.55;5.85;;;;;;;3.39;100.00;102506.31;6228159;28;20354;-78
2024/01/30 01:17:20;;;;;;;12.20;5.47;;;;;;;3.40;100.00;102510.63;6227822;28;20366;-78
2024/01/30 01:20:21;;;;;;;11.45;5.60;;;;;;;3.39;100.00;102505.44;6228161;28;20050;-78
2024/01/30 01:23:23;;;;;;;14.15;6.70;;;;;;;3.36;100.00;102497.63;6228145;28;20054;-78
2024/01/30 01:26:25;;;;;;;11.30;6.22;;;;;;;3.36;100.00;102498.50;6227551;28;20354;-78
2024/01/30 01:29:28;;;;;;;12.93;6.00;;;;;;;3.36;100.00;102495.91;6228264;28;20042;-78
2024/01/30 01:32:30;;;;;;;11.32;5.25;;;;;;;3.49;100.00;102495.06;6228128;28;20052;-77
2024/01/30 01:35:31;;;;;;;17.25;6.38;;;;;;;3.47;100.00;102494.22;6228542;28;20053;-78
2024/01/30 01:38:32;;;;;;;18.35;6.80;;;;;;;3.47;100.00;102482.97;6251595;28;20374;-78
2024/01/30 01:41:35;;;;;;;13.95;6.15;;;;;;;3.48;100.00;102482.09;6252089;28;20046;-78
2024/01/30 01:44:36;;;;;;;15.07;6.68;;;;;;;3.50;100.00;102485.56;6252052;28;20352;-78
2024/01/30 01:47:38;;;;;;;16.23;6.85;;;;;;;3.48;100.00;102479.47;6251822;28;20049;-78
2024/01/30 01:50:40;;;;;;;13.60;6.40;;;;;;;3.47;100.00;102477.75;6252126;28;20348;-77
2024/01/30 01:53:42;;;;;;;13.32;6.55;;;;;;;3.47;100.00;102475.16;6251724;28;20057;-78
2024/01/30 01:56:44;;;;;;;12.35;5.97;;;;;;;3.50;100.00;102468.25;6265019;23;20038;-72
2024/01/30 01:59:46;;;;;;;12.35;6.43;;;;;;;3.53;100.00;102472.56;6252113;28;20048;-72
2024/01/30 02:02:47;;;;;;;10.07;5.57;;;;;;;3.56;100.00;102459.59;6251917;28;20054;-72
2024/01/30 02:05:51;;;;;;;15.38;5.85;;;;;;;3.56;100.00;102463.06;6251878;28;20054;-72
2024/01/30 02:08:52;;;;;;;11.32;5.35;;;;;;;3.59;100.00;102456.13;6251148;28;20460;-72
2024/01/30 02:11:56;;;;;;;13.93;6.13;;;;;;;3.59;100.00;102458.72;6251888;28;20042;-73
2024/01/30 02:14:57;;;;;;;12.30;5.70;;;;;;;3.57;100.00;102443.13;6250848;28;20053;-73
2024/01/30 02:17:59;;;;;;;11.82;5.40;;;;;;;3.54;100.00;102438.81;6251254;28;20056;-72
2024/01/30 02:21:05;;;;;;;14.13;6.45;;;;;;;3.56;100.00;102431.00;6251202;28;20041;-72
2024/01/30 02:24:07;;;;;;;13.80;5.97;;;;;;;3.56;100.00;102433.59;6251817;28;20058;-73
2024/01/30 02:27:08;;;;;;;12.70;6.03;;;;;;;3.53;100.00;102430.97;6250721;28;20353;-72
2024/01/30 02:30:11;;;;;;;10.93;5.20;;;;;;;3.54;100.00;102433.59;6251302;28;20360;-72
2024/01/30 02:33:12;;;;;;;14.27;6.13;;;;;;;3.55;100.00;102427.53;6250979;28;20349;-73
2024/01/30 02:36:15;;;;;;;18.60;6.95;;;;;;;3.59;100.00;102430.13;6250914;28;20050;-72
2024/01/30 02:39:16;;;;;;;16.27;6.45;;;;;;;3.65;100.00;102427.56;6251088;28;20080;-73
2024/01/30 02:42:18;;;;;;;12.90;6.13;;;;;;;3.65;100.00;102430.16;6250969;28;20056;-72
2024/01/30 02:45:19;;;;;;;10.60;5.85;;;;;;;3.64;100.00;102416.31;6250832;28;20053;-72
2024/01/30 02:48:20;;;;;;;16.05;6.70;;;;;;;3.61;100.00;102424.09;6250395;28;20476;-72
2024/01/30 02:51:23;;;;;;;12.10;6.03;;;;;;;3.61;100.00;102415.41;6251257;28;20049;-72
2024/01/30 02:54:24;;;;;;;13.48;5.93;;;;;;;3.59;100.00;102414.53;6250437;28;20326;-72
2024/01/30 02:57:26;;;;;;;11.27;6.65;;;;;;;3.59;100.00;102406.72;6265137;28;20057;-72
2024/01/30 03:00:27;;;;;;;13.55;6.80;;;;;;;3.56;100.00;102407.63;6275600;28;20053;-72
2024/01/30 03:03:28;;;;;;;14.35;6.60;;;;;;;3.51;100.00;102406.75;6275225;28;20383;-72
2024/01/30 03:06:31;;;;;;;15.90;6.30;;;;;;;3.48;100.00;102404.13;6273273;28;20049;-72
2024/01/30 03:09:33;;;;;;;10.48;5.93;;;;;;;3.46;100.00;102408.47;6249735;28;20060;-72
2024/01/30 03:12:34;;;;;;;12.52;5.97;;;;;;;3.40;100.00;102409.28;6250923;28;20045;-72
2024/01/30 03:15:35;;;;;;;10.25;5.45;;;;;;;3.38;100.00;102404.97;6250254;28;20065;-72
2024/01/30 03:18:37;;;;;;;14.65;5.15;;;;;;;3.33;100.00;102389.34;6272598;28;20075;-72
2024/01/30 03:21:39;;;;;;;17.15;6.80;;;;;;;3.30;100.00;102387.59;6274723;28;20052;-72
2024/01/30 03:24:41;;;;;;;13.90;6.93;;;;;;;3.27;100.00;102387.63;6275359;28;20059;-72
2024/01/30 03:27:42;;;;;;;12.52;5.82;;;;;;;3.26;100.00;102392.78;6279864;28;20049;-72
2024/01/30 03:30:43;;;;;;;18.27;6.55;;;;;;;3.25;100.00;102385.88;6280484;28;20049;-71
2024/01/30 03:33:45;;;;;;;15.43;6.35;;;;;;;3.24;100.00;102387.59;6279934;28;20451;-72
2024/01/30 03:36:47;;;;;;;9.95;5.60;;;;;;;3.18;100.00;102376.28;6279164;28;20051;-72
2024/01/30 03:39:49;;;;;;;12.75;5.35;;;;;;;3.16;100.00;102376.31;6279828;28;20449;-72
2024/01/30 03:42:50;;;;;;;11.32;5.55;;;;;;;3.12;100.00;102384.09;6279529;28;20459;-71
2024/01/30 03:45:51;;;;;;;12.57;5.18;;;;;;;3.12;100.00;102378.88;6279833;28;20048;-72
2024/01/30 03:48:53;;;;;;;10.65;6.30;;;;;;;3.07;100.00;102384.06;6279219;28;20078;-72
2024/01/30 03:51:55;;;;;;;11.63;6.53;;;;;;;3.04;100.00;102384.03;6279856;28;20057;-71
2024/01/30 03:54:57;;;;;;;10.25;5.13;;;;;;;3.01;100.00;102381.44;6279412;28;20589;-72
2024/01/30 03:57:58;;;;;;;12.93;6.32;;;;;;;2.98;100.00;102382.28;6279161;28;20055;-72
2024/01/30 04:00:59;;;;;;;14.07;6.22;;;;;;;2.95;100.00;102379.69;6279469;28;20049;-72
2024/01/30 04:04:01;;;;;;;9.05;5.63;;;;;;;2.99;100.00;102373.63;6279576;28;20055;-72
2024/01/30 04:07:04;;;;;;;14.80;6.65;;;;;;;2.92;100.00;102374.47;6278691;28;20048;-72
2024/01/30 04:10:06;;;;;;;21.17;8.60;;;;;;;2.95;100.00;102374.50;6279521;28;20045;-72
2024/01/30 04:13:08;;;;;;;24.23;9.95;;;;;;;2.97;100.00;102374.50;6279119;28;20052;-71
2024/01/30 04:16:09;;;;;;;26.00;9.38;;;;;;;3.02;100.00;102373.66;6279298;28;20064;-71
2024/01/30 04:19:10;;;;;;;17.83;8.27;;;;;;;3.08;100.00;102374.53;6278897;28;20380;-73
2024/01/30 04:22:13;;;;;;;11.10;6.03;;;;;;;3.07;100.00;102367.63;6272360;28;20048;-71
2024/01/30 04:25:14;;;;;;;12.32;6.20;;;;;;;3.03;100.00;102369.31;6265098;28;20372;-72
2024/01/30 04:28:16;;;;;;;13.23;6.15;;;;;;;3.05;100.00;102370.22;6263412;28;20053;-72
2024/01/30 04:31:17;;;;;;;14.88;6.28;;;;;;;3.04;100.00;102368.44;6254253;28;20052;-72
2024/01/30 04:34:18;;;;;;;12.07;6.30;;;;;;;3.05;100.00;102371.09;6268682;28;20056;-72
2024/01/30 04:37:21;;;;;;;11.15;5.55;;;;;;;3.09;100.00;102363.28;6278073;28;20448;-71
2024/01/30 04:40:22;;;;;;;12.77;6.65;;;;;;;3.09;100.00;102366.78;6269487;28;20449;-73
2024/01/30 04:43:24;;;;;;;13.05;6.15;;;;;;;3.10;100.00;102368.50;6264689;28;20047;-73
2024/01/30 04:46:25;;;;;;;10.73;6.22;;;;;;;3.14;100.00;102366.78;6253467;28;20441;-73
2024/01/30 04:49:26;;;;;;;15.07;7.40;;;;;;;3.13;100.00;102360.69;6253611;28;20049;-73
2024/01/30 04:52:29;;;;;;;13.25;7.43;;;;;;;3.13;100.00;102368.50;6253540;28;20354;-72
2024/01/30 04:55:30;;;;;;;14.30;6.15;;;;;;;3.14;100.00;102366.78;6253106;28;20045;-73
2024/01/30 04:58:32;;;;;;;12.23;6.10;;;;;;;3.17;100.00;102371.97;6252894;28;20060;-71
2024/01/30 05:01:33;;;;;;;16.10;5.55;;;;;;;3.19;100.00;102365.94;6253322;28;20427;-74
2024/01/30 05:04:34;;;;;;;16.95;6.85;;;;;;;3.21;100.00;102360.72;6258065;28;20045;-73
2024/01/30 05:07:37;;;;;;;14.68;6.13;;;;;;;3.21;100.00;102360.72;6277184;28;20424;-73
2024/01/30 05:10:39;;;;;;;14.35;6.13;;;;;;;3.19;100.00;102344.28;6277955;28;20064;-73
2024/01/30 05:13:40;;;;;;;17.73;6.20;;;;;;;3.23;100.00;102352.09;6277676;28;20049;-73
2024/01/30 05:16:42;;;;;;;12.77;6.20;;;;;;;3.21;100.00;102346.00;6277242;28;20052;-74
2024/01/30 05:19:44;;;;;;;10.98;5.40;;;;;;;3.21;100.00;102351.19;6277654;28;20049;-72
2024/01/30 05:22:47;;;;;;;14.90;6.63;;;;;;;3.21;100.00;102351.19;6277179;28;20160;-72
2024/01/30 05:25:48;;;;;;;13.88;6.13;;;;;;;3.20;100.00;102353.81;6277572;28;20045;-71
2024/01/30 05:28:49;;;;;;;12.10;6.20;;;;;;;3.21;100.00;102351.19;6276999;28;20053;-74
2024/01/30 05:31:51;;;;;;;13.13;6.65;;;;;;;3.21;100.00;102358.13;6277648;28;20045;-73
2024/01/30 05:34:52;;;;;;;13.65;6.30;;;;;;;3.20;100.00;102354.69;6277118;28;20476;-73
2024/01/30 05:37:55;;;;;;;19.92;7.40;;;;;;;3.14;100.00;102357.25;6276556;28;20045;-73
2024/01/30 05:40:57;;;;;;;14.10;6.47;;;;;;;3.13;100.00;102355.50;6277140;28;20045;-73
2024/01/30 05:43:59;;;;;;;12.25;6.38;;;;;;;3.14;100.00;102348.59;6277078;28;20123;-73
2024/01/30 05:47:00;;;;;;;12.95;6.65;;;;;;;3.13;100.00;102344.25;6276598;28;20056;-73
2024/01/30 05:50:01;;;;;;;13.55;5.95;;;;;;;3.14;100.00;102340.81;6276408;28;20052;-73
2024/01/30 05:53:04;;;;;;;16.45;6.68;;;;;;;3.14;100.00;102346.00;6276595;28;20053;-73
2024/01/30 05:56:06;;;;;;;11.65;6.47;;;;;;;3.17;100.00;102341.66;6276477;28;20064;-73
2024/01/30 05:59:08;;;;;;;14.75;7.13;;;;;;;3.19;100.00;102344.28;6276473;28;20049;-73
2024/01/30 06:02:09;;;;;;;11.65;6.07;;;;;;;3.24;100.00;102337.38;6276746;28;20306;-73
2024/01/30 06:05:10;;;;;;;16.17;7.40;;;;;;;3.25;100.00;102334.75;6276568;28;20048;-73
2024/01/30 06:08:13;;;;;;;13.52;6.18;;;;;;;3.31;100.00;102333.91;6275969;28;20045;-73
2024/01/30 06:11:15;;;;;;;13.13;6.38;;;;;;;3.37;100.00;102333.06;6276732;28;20045;-72
2024/01/30 06:14:16;;;;;;;12.93;6.10;;;;;;;3.38;100.00;102338.25;6276333;28;20049;-73
2024/01/30 06:17:17;;;;;;;19.08;6.65;;;;;;;3.44;100.00;102340.00;6275822;28;20360;-73
2024/01/30 06:20:19;;;;;;;14.48;6.63;;;;;;;3.43;100.00;102333.94;6276302;28;20055;-73
2024/01/30 06:23:22;;;;;;;12.40;6.35;;;;;;;3.44;100.00;102337.41;6276102;28;20140;-73
2024/01/30 06:26:23;;;;;;;11.77;6.68;;;;;;;3.46;100.00;102333.97;6275617;28;20341;-72
2024/01/30 06:29:26;;;;;;;13.95;7.25;;;;;;;3.48;100.00;102332.22;6276668;28;20053;-72
2024/01/30 06:32:28;;;;;;;10.93;5.38;;;;;;;3.48;100.00;102332.22;6276087;28;20055;-73
2024/01/30 06:35:30;;;;;;;15.23;6.30;;;;;;;3.47;100.00;102333.09;6275688;28;20052;-73
2024/01/30 06:38:32;;;;;;;13.60;6.75;;;;;;;3.49;100.00;102323.53;6275634;28;20425;-73
2024/01/30 06:41:34;;;;;;;14.30;7.55;;;;;;;3.51;100.00;102339.16;6275693;28;20041;-72
2024/01/30 06:44:35;;;;;;;15.20;7.05;;;;;;;3.54;100.00;102333.94;6275673;28;20055;-72
2024/01/30 06:47:36;;;;;;;16.02;6.30;;;;;;;3.52;100.00;102335.69;6275309;28;20053;-72
2024/01/30 06:50:37;;;;;;;23.92;7.50;;;;;;;3.54;100.00;102336.53;6275848;28;20049;-72
2024/01/30 06:53:40;;;;;;;11.55;6.25;;;;;;;3.53;100.00;102346.06;6275408;28;20330;-72
2024/01/30 06:56:42;;;;;;;11.07;6.15;;;;;;;3.54;100.00;102350.44;6274936;28;20049;-73
2024/01/30 06:59:43;;;;;;;14.30;6.43;;;;;;;3.56;100.00;102353.88;6275624;28;20056;-73
2024/01/30 07:02:45;;;;;;;13.93;6.65;;;;;;;3.61;100.00;102350.44;6274858;28;20341;-73
2024/01/30 07:05:46;;;;;;;16.05;7.22;;;;;;;3.59;100.00;102350.44;6275514;28;20049;-72
2024/01/30 07:08:49;;;;;;;18.70;6.13;;;;;;;3.61;100.00;102346.09;6274930;28;20048;-72
2024/01/30 07:11:51;;;;;;;13.70;6.63;;;;;;;3.61;100.00;102345.22;6275498;28;20048;-72
2024/01/30 07:14:52;;;;;;;17.17;7.72;;;;;;;3.64;100.00;102347.84;6275021;28;20067;-72
2024/01/30 07:17:53;;;;;;;14.70;6.75;;;;;;;3.65;100.00;102339.19;6274914;28;20053;-72
2024/01/30 07:20:55;;;;;;;14.32;6.50;;;;;;;3.67;100.00;102337.44;6275052;28;20517;-72
2024/01/30 07:23:57;;;;;;;18.02;8.00;;;;;;;3.74;100.00;102340.03;6275002;28;20060;-72
2024/01/30 07:26:59;;;;;;;14.70;7.03;;;;;;;3.79;100.00;102337.44;6274594;28;20056;-72
2024/01/30 07:30:00;;;;;;;14.52;7.03;;;;;;;3.84;100.00;102330.50;6274982;28;20353;-72
2024/01/30 07:33:01;;;;;;;15.13;7.45;;;;;;;3.89;100.00;102339.16;6275014;28;20041;-73
2024/01/30 07:36:03;;;;;;;14.60;6.57;;;;;;;3.95;100.00;102333.09;6274764;28;20053;-72
2024/01/30 07:39:06;;;;;;;13.80;6.60;;;;;;;4.01;100.00;102331.38;6274303;28;20052;-72
2024/01/30 07:42:07;;;;;;;18.90;7.30;;;;;;;4.04;100.00;102328.78;6274307;28;20057;-72
2024/01/30 07:45:10;;;;;;;15.10;7.70;;;;;;;4.11;100.00;102331.38;6274645;28;20048;-72
2024/01/30 07:48:11;;;;;;;19.30;8.30;;;;;;;4.24;100.00;102333.09;6274369;28;20056;-73
2024/01/30 07:51:13;;;;;;;14.20;7.20;;;;;;;4.34;100.00;102319.19;6275028;28;20067;-72
2024/01/30 07:54:15;;;;;;;25.17;7.68;;;;;;;4.43;100.00;102323.50;6274545;28;20060;-72
2024/01/30 07:57:17;;;;;;;21.92;8.40;;;;;;;4.58;100.00;102326.91;6295087;23;20090;-74
2024/01/30 08:00:19;;;;;;;21.50;8.23;;;;;;;4.72;100.00;102332.06;6274666;28;20187;-75
2024/01/30 08:03:20;;;;;;;17.27;8.10;;;;;;;4.83;100.00;102324.25;6272925;28;20070;-74
2024/01/30 08:06:22;;;;;;;16.92;8.48;;;;;;;4.90;100.00;102325.06;6273891;28;20048;-75
2024/01/30 08:09:24;;;;;;;17.20;7.93;;;;;;;4.97;100.00;102329.38;6274316;28;20348;-74
2024/01/30 08:12:26;;;;;;;20.92;9.00;;;;;;;5.02;100.00;102325.88;6277593;28;20063;-75
2024/01/30 08:15:27;;;;;;;17.50;8.40;;;;;;;5.07;100.00;102318.91;6278116;28;20357;-75
2024/01/30 08:18:28;;;;;;;20.60;8.77;;;;;;;5.12;100.00;102312.81;6278203;28;20045;-75
2024/01/30 08:21:30;;;;;;;15.25;7.63;;;;;;;5.12;100.00;102316.28;6278279;28;20048;-75
2024/01/30 08:24:32;;;;;;;19.25;8.35;;;;;;;5.20;100.00;102322.31;6278349;28;20049;-73
2024/01/30 08:27:35;;;;;;;16.38;8.48;;;;;;;5.24;100.00;102310.13;6277787;28;20050;-73
2024/01/30 08:30:36;;;;;;;16.75;7.75;;;;;;;5.32;100.00;102316.19;6278265;28;20459;-76
2024/01/30 08:33:37;;;;;;;15.57;8.15;;;;;;;5.39;100.00;102319.59;6277868;28;20037;-73
2024/01/30 08:36:39;;;;;;;17.73;7.95;;;;;;;5.44;100.00;102312.59;6277464;28;20360;-73
2024/01/30 08:39:41;;;;;;;21.77;8.07;;;;;;;5.45;100.00;102315.22;6278132;28;20048;-73
2024/01/30 08:42:43;;;;;;;14.65;7.93;;;;;;;5.49;100.00;102308.22;6277872;28;20187;-73
2024/01/30 08:45:44;;;;;;;20.90;7.75;;;;;;;5.53;100.00;102312.53;6277872;28;20041;-75
2024/01/30 08:48:47;;;;;;;20.40;7.28;;;;;;;5.59;100.00;102304.69;6277823;28;20049;-74
2024/01/30 08:51:50;;;;;;;12.80;7.03;;;;;;;5.65;100.00;102302.03;6278574;28;20130;-75
2024/01/30 08:54:52;;;;;;;20.25;8.27;;;;;;;5.70;100.00;102297.63;6278274;28;20052;-76
2024/01/30 08:57:54;;;;;;;18.45;8.32;;;;;;;5.76;100.00;102301.94;6293765;28;20048;-73
2024/01/30 09:00:55;;;;;;;19.55;8.60;;;;;;;5.83;100.00;102306.22;6303029;28;20356;-73
2024/01/30 09:03:56;;;;;;;18.50;7.50;;;;;;;5.91;100.00;102311.38;6302816;28;20047;-74
2024/01/30 09:06:58;;;;;;;18.98;7.90;;;;;;;5.97;100.00;102308.75;6302256;28;20052;-74
2024/01/30 09:10:00;;;;;;;17.90;8.57;;;;;;;6.03;100.00;102316.50;6302727;28;20644;-74
2024/01/30 09:13:02;;;;;;;15.35;6.93;;;;;;;6.05;100.00;102313.00;6302398;28;20048;-77
2024/01/30 09:16:03;;;;;;;20.27;7.50;;;;;;;6.14;100.00;102314.69;6302547;28;20048;-74
2024/01/30 09:19:05;;;;;;;16.40;8.18;;;;;;;6.15;100.00;102312.94;6302156;28;20044;-74
2024/01/30 09:22:06;;;;;;;12.57;6.53;;;;;;;6.21;100.00;102315.47;6300618;28;20048;-74
2024/01/30 09:25:09;;;;;;;18.20;7.70;;;;;;;6.24;100.00;102307.63;6301682;28;20433;-74
2024/01/30 09:28:11;;;;;;;13.90;6.45;;;;;;;6.33;100.00;102311.00;6301603;28;20052;-76
2024/01/30 09:31:13;;;;;;;13.77;6.82;;;;;;;6.36;100.00;102307.50;6302378;28;20051;-74
2024/01/30 09:34:14;;;;;;;23.33;8.20;;;;;;;6.47;100.00;102310.84;6301686;28;20108;-74
2024/01/30 09:37:17;;;;;;;16.70;7.50;;;;;;;6.61;100.00;102316.75;6301728;28;20056;-75
2024/01/30 09:40:20;;;;;;;16.58;7.60;;;;;;;6.68;100.00;102314.97;6301535;28;20177;-74
2024/01/30 09:43:23;;;;;;;15.32;7.00;;;;;;;6.75;100.00;102318.34;6301015;28;20037;-74
2024/01/30 09:46:28;;;;;;;17.73;7.65;;;;;;;6.81;100.00;102316.56;6301093;28;20055;-74
2024/01/30 09:49:30;;;;;;;14.13;7.18;;;;;;;6.96;100.00;102307.63;6301809;28;20056;-75
2024/01/30 09:52:31;;;;;;;13.38;7.07;;;;;;;7.07;100.00;102305.72;6301793;28;20056;-74
2024/01/30 09:55:36;;;;;;;16.52;7.47;;;;;;;7.07;100.00;102310.97;6301377;28;20053;-74
2024/01/30 09:58:39;;;;;;;16.77;6.72;;;;;;;7.16;100.00;102303.88;6300959;28;20052;-74
2024/01/30 10:01:41;;;;;;;14.93;7.47;;;;;;;7.26;100.00;102306.31;6300865;28;20360;-76
2024/01/30 10:04:42;;;;;;;13.50;6.47;;;;;;;7.33;100.00;102309.75;6300829;28;20051;-74
2024/01/30 10:07:51;;;;;;;14.18;6.70;;;;;;;7.34;100.00;102309.69;6300146;28;20048;-74
2024/01/30 10:10:54;;;;;;;12.38;5.38;;;;;;;7.41;100.00;102307.03;6298808;28;20080;-76
2024/01/30 10:13:55;;;;;;;12.95;6.10;;;;;;;7.43;100.00;102303.47;6300346;28;20048;-74
2024/01/30 10:16:58;;;;;;;18.52;7.85;;;;;;;7.48;100.00;102298.16;6300241;28;20060;-74
2024/01/30 10:19:59;;;;;;;12.73;6.90;;;;;;;7.49;100.00;102299.88;6300461;28;20059;-74
2024/01/30 10:23:00;;;;;;;11.77;5.72;;;;;;;7.58;100.00;102302.38;6300122;28;20049;-74
2024/01/30 10:26:03;;;;;;;14.05;6.55;;;;;;;7.63;100.00;102300.56;6300419;28;20048;-74
2024/01/30 10:29:05;;;;;;;13.55;6.78;;;;;;;7.74;100.00;102298.63;6300026;28;20070;-76
2024/01/30 10:32:07;;;;;;;13.10;5.57;;;;;;;7.83;100.00;102297.59;6300320;28;20041;-73
2024/01/30 10:35:08;;;;;;;13.45;5.85;;;;;;;7.96;100.00;102295.66;6296073;28;20052;-74
2024/01/30 10:38:15;;;;;;;14.05;6.10;;;;;;;8.04;100.00;102297.25;6299375;28;20174;-73
2024/01/30 10:41:25;;;;;;;15.65;6.60;;;;;;;8.03;100.00;102292.88;6299686;28;20052;-74
2024/01/30 10:44:30;;;;;;;12.60;5.80;;;;;;;8.14;100.00;102295.31;6300335;28;20056;-76
2024/01/30 10:47:35;;;;;;;16.40;6.88;;;;;;;8.24;100.00;102289.00;6299910;28;20056;-75
2024/01/30 10:50:37;;;;;;;8.23;4.78;;;;;;;8.29;100.00;102286.31;6300644;28;20071;-73
2024/01/30 10:53:40;;;;;;;11.90;6.15;;;;;;;8.35;100.00;102284.41;6299833;28;20344;-75
2024/01/30 10:56:43;;;;;;;11.07;5.25;;;;;;;8.45;100.00;102281.66;6296570;28;20041;-73
2024/01/30 10:59:46;;;;;;;16.02;6.40;;;;;;;8.48;100.00;102282.47;6298734;28;20348;-76
2024/01/30 11:02:48;;;;;;;14.45;5.88;;;;;;;8.49;100.00;102280.69;6299860;28;20043;-73
2024/01/30 11:05:51;;;;;;;8.13;4.88;;;;;;;8.61;100.00;102267.34;6300037;28;20049;-73
2024/01/30 11:09:02;;;;;;;14.25;5.38;;;;;;;8.72;100.00;102273.25;6299660;28;20121;-73
2024/01/30 11:12:05;;;;;;;13.82;5.47;;;;;;;8.83;100.00;102276.50;6300025;28;20071;-73
2024/01/30 11:15:08;;;;;;;9.70;4.65;;;;;;;8.96;100.00;102266.59;6300252;28;20063;-73
2024/01/30 11:18:10;;;;;;;15.48;5.22;;;;;;;9.08;100.00;102274.22;6299735;28;20533;-73
2024/01/30 11:21:14;;;;;;;10.75;4.50;;;;;;;9.19;100.00;102267.84;6300322;28;20055;-74
2024/01/30 11:24:16;;;;;;;10.05;4.70;;;;;;;9.27;100.00;102264.16;6299787;28;20067;-74
2024/01/30 11:27:19;;;;;;;11.82;5.20;;;;;;;9.31;100.00;102264.91;6299728;28;20056;-73
2024/01/30 11:30:25;;;;;;;9.75;5.35;;;;;;;9.36;100.00;102263.06;6299553;28;20048;-74
2024/01/30 11:33:30;;;;;;;12.35;5.20;;;;;;;9.47;100.00;102262.81;6299377;28;20040;-75
2024/01/30 11:36:37;;;;;;;12.80;4.82;;;;;;;9.53;100.00;102257.41;6299294;28;20041;-75
2024/01/30 11:39:38;;;;;;;12.05;5.13;;;;;;;9.68;100.00;102251.78;6299863;28;20079;-75
2024/01/30 11:42:43;;;;;;;8.23;4.63;;;;;;;9.72;100.00;102237.69;6299378;28;20047;-73
2024/01/30 11:45:44;;;;;;;9.60;5.07;;;;;;;9.87;100.00;102239.91;6296995;28;20049;-74
2024/01/30 11:48:46;;;;;;;11.02;5.03;;;;;;;10.04;100.00;102244.72;6303789;28;20048;-74
2024/01/30 11:51:48;;;;;;;9.07;4.35;;;;;;;10.19;100.00;102248.66;6304012;28;20052;-73
2024/01/30 11:54:50;;;;;;;9.43;4.90;;;;;;;10.29;100.00;102257.19;6304230;28;20173;-73
2024/01/30 11:57:56;;;;;;;8.07;4.10;;;;;;;10.40;100.00;102256.00;6303279;28;20364;-73
2024/01/30 12:00:57;;;;;;;9.00;4.63;;;;;;;10.53;100.00;102253.00;6304648;28;20044;-75
2024/01/30 12:04:01;;;;;;;8.10;4.25;;;;;;;10.47;100.00;102242.66;6303361;28;20040;-73
2024/01/30 12:07:03;;;;;;;8.63;4.38;;;;;;;10.49;100.00;102247.00;6303552;28;20044;-74
2024/01/30 12:10:05;;;;;;;9.45;5.40;;;;;;;10.45;100.00;102253.25;6304247;28;20051;-75
2024/01/30 12:13:08;;;;;;;10.73;4.65;;;;;;;10.40;100.00;102249.84;6303358;28;20048;-73
2024/01/30 12:16:09;;;;;;;8.20;4.50;;;;;;;10.29;100.00;102250.16;6303508;28;20047;-75
2024/01/30 12:19:11;;;;;;;6.97;4.60;;;;;;;10.18;100.00;102249.59;6298607;28;20053;-75
2024/01/30 12:22:12;;;;;;;13.55;4.90;;;;;;;10.13;100.00;102247.09;6300886;28;20432;-74
2024/01/30 12:25:15;;;;;;;10.88;4.97;;;;;;;10.11;100.00;102256.75;6300966;28;20066;-72
2024/01/30 12:28:18;;;;;;;9.30;4.90;;;;;;;10.16;100.00;102261.88;6301613;28;20041;-73
2024/01/30 12:31:26;;;;;;;9.43;4.63;;;;;;;10.25;100.00;102258.19;6302902;28;20050;-74
2024/01/30 12:34:27;;;;;;;15.80;4.90;;;;;;;10.31;100.00;102263.25;6302624;28;20123;-73
2024/01/30 12:37:29;;;;;;;10.60;4.63;;;;;;;10.28;100.00;102255.47;6302936;28;20056;-73
2024/01/30 12:40:34;;;;;;;10.23;4.75;;;;;;;10.20;100.00;102253.00;6302805;28;20078;-73
2024/01/30 12:43:37;;;;;;;6.10;3.78;;;;;;;10.23;100.00;102255.56;6296210;28;20446;-73
2024/01/30 12:46:38;;;;;;;13.50;5.03;;;;;;;10.30;100.00;102251.88;6297567;28;20045;-73
2024/01/30 12:49:39;;;;;;;11.32;4.88;;;;;;;10.33;100.00;102250.94;6302397;28;20048;-73
2024/01/30 12:52:41;;;;;;;13.18;4.45;;;;;;;10.32;100.00;102251.84;6302927;28;20344;-73
2024/01/30 12:55:42;;;;;;;8.20;4.38;;;;;;;10.31;100.00;102251.00;6294178;28;20041;-73
2024/01/30 12:58:45;;;;;;;8.25;4.22;;;;;;;10.45;100.00;102249.75;6301746;28;20048;-73
2024/01/30 13:01:46;;;;;;;9.10;5.25;;;;;;;10.54;100.00;102252.97;6302568;28;20467;-73
2024/01/30 13:04:48;;;;;;;7.38;4.80;;;;;;;10.47;100.00;102253.19;6302556;28;20048;-73
2024/01/30 13:07:49;;;;;;;8.98;4.65;;;;;;;10.46;100.00;102262.84;6302553;28;20045;-74
2024/01/30 13:10:50;;;;;;;15.45;4.47;;;;;;;10.52;100.00;102269.69;6302865;28;20052;-73
2024/01/30 13:13:53;;;;;;;7.65;4.22;;;;;;;10.71;100.00;102270.00;6302686;28;20052;-74
2024/01/30 13:16:54;;;;;;;10.82;4.20;;;;;;;10.80;100.00;102265.31;6301700;28;20068;-73
2024/01/30 13:19:56;;;;;;;11.20;4.90;;;;;;;10.96;100.00;102271.00;6302611;28;20052;-73
2024/01/30 13:22:57;;;;;;;9.73;3.97;;;;;;;10.77;100.00;102261.94;6302329;28;20049;-73
2024/01/30 13:25:59;;;;;;;10.13;4.13;;;;;;;10.68;100.00;102270.97;6302250;28;20052;-74
2024/01/30 13:29:02;;;;;;;14.15;4.25;;;;;;;10.70;100.00;102268.28;6301973;28;20059;-73
2024/01/30 13:32:04;;;;;;;10.15;5.25;;;;;;;10.84;100.00;102268.72;6302539;28;20137;-73
2024/01/30 13:35:05;;;;;;;10.48;5.40;;;;;;;10.70;100.00;102269.16;6301970;28;20340;-73
2024/01/30 13:38:07;;;;;;;7.40;4.32;;;;;;;10.63;100.00;102265.00;6301443;28;20052;-73
2024/01/30 13:41:08;;;;;;;8.63;4.00;;;;;;;10.65;100.00;102257.91;6302456;28;20048;-73
2024/01/30 13:44:11;;;;;;;7.63;4.20;;;;;;;10.58;100.00;102256.34;6301842;28;20048;-74
2024/01/30 13:47:12;;;;;;;16.52;4.70;;;;;;;10.64;100.00;102262.31;6301523;28;20079;-74
2024/01/30 13:50:16;;;;;;;9.32;5.25;;;;;;;10.53;100.00;102253.84;6298359;28;20041;-73
2024/01/30 13:53:17;;;;;;;6.80;4.05;;;;;;;10.48;100.00;102254.91;6300419;28;20044;-73
2024/01/30 13:59:28;;;;;;;10.48;4.28;;;;;;;10.46;100.00;102267.22;6250379;28;20056;-74